Time;durP1;ratioP1;P1;durP2;ratioP2;P2;SDS_P1;SDS_P2;PMS_P1;PMS_P2;Temp;Humidity;BMP_temperature;BMP_pressure;BME280_temperature;BME280_humidity;BME280_pressure;Samples;Min_cycle;Max_cycle;Signal;HPM_P1;HPM_P2
2022/06/30 00:02:17;;;;;;;;;;;;;;;;;;4994667;28;20293;-87
2022/06/30 00:04:42;;;;;;;;;;;;;;;;;;4993788;28;19913;-88
2022/06/30 00:07:08;;;;;;;;;;;;;;;;;;4994300;28;19914;-87
2022/06/30 00:09:33;;;;;;;;;;;;;;;;;;4993488;28;20095;-87
2022/06/30 00:11:58;;;;;;;;;;;;;;;;;;4976923;28;19917;-88
2022/06/30 00:14:24;;;;;;;;;;;;;;;;;;4977039;28;19914;-88
2022/06/30 00:16:49;;;;;;;;;;;;;;;;;;4977462;28;19945;-88
2022/06/30 00:19:14;;;;;;;;;;;;;;;;;;4976545;28;20268;-89
2022/06/30 00:21:40;;;;;;;;;;;;;;;;;;4992528;28;19953;-88
2022/06/30 00:24:05;;;;;;;;;;;;;;;;;;4993414;28;19921;-87
2022/06/30 00:26:31;;;;;;;;;;;;;;;;;;4976952;28;20272;-87
2022/06/30 00:28:56;;;;;;;;;;;;;;;;;;4977098;28;19964;-87
2022/06/30 00:31:22;;;;;;;;;;;;;;;;;;4977423;28;19913;-88
2022/06/30 00:33:47;;;;;;;;;;;;;;;;;;4976611;28;20316;-89
2022/06/30 00:36:22;;;;;;;;;;;;;;;;;;4977150;28;19972;-88
2022/06/30 00:38:51;;;;;;;;;;;;;;;;;;4977494;28;19920;-86
2022/06/30 00:41:17;;;;;;;;;;;;;;;;;;4976599;28;19913;-86
2022/06/30 00:43:42;;;;;;;;;;;;;;;;;;4960437;28;20392;-87
2022/06/30 00:46:07;;;;;;;;;;;;;;;;;;4960391;28;20012;-89
2022/06/30 00:48:33;;;;;;;;;;;;;;;;;;4992367;28;19914;-88
2022/06/30 00:50:58;;;;;;;;;;;;;;;;;;4977254;28;19968;-86
2022/06/30 00:53:23;;;;;;;;;;;;;;;;;;4960578;28;19922;-86
2022/06/30 00:55:49;;;;;;;;;;;;;;;;;;4961382;28;19929;-87
2022/06/30 00:58:14;;;;;;;;;;;;;;;;;;4992889;28;19918;-89
2022/06/30 01:00:40;;;;;;;;;;;;;;;;;;4960524;28;20025;-87
2022/06/30 01:03:08;;;;;;;;;;;;;;;;;;4976241;28;19924;-88
2022/06/30 01:05:33;;;;;;;;;;;;;;;;;;4959632;28;20016;-89
2022/06/30 01:07:59;;;;;;;;;;;;;;;;;;4959681;28;19917;-87
2022/06/30 01:13:09;;;;;;;;;;;;;;;;;;4993266;28;20448;-87
2022/06/30 01:15:34;;;;;;;;;;;;;;;;;;4960360;28;20245;-88
2022/06/30 01:18:00;;;;;;;;;;;;;;;;;;4994792;28;19913;-88
2022/06/30 01:20:26;;;;;;;;;;;;;;;;;;4976794;28;19918;-88
2022/06/30 01:22:51;;;;;;;;;;;;;;;;;;4960656;28;19965;-89
2022/06/30 01:25:16;;;;;;;;;;;;;;;;;;4976936;28;19914;-89
2022/06/30 01:27:42;;;;;;;;;;;;;;;;;;4976313;28;19914;-88
2022/06/30 01:30:07;;;;;;;;;;;;;;;;;;4959712;28;19956;-87
2022/06/30 01:32:32;;;;;;;;;;;;;;;;;;4959578;28;20008;-88
2022/06/30 01:34:58;;;;;;;;;;;;;;;;;;4959853;28;19957;-88
2022/06/30 01:37:23;;;;;;;;;;;;;;;;;;4960128;28;19968;-88
2022/06/30 01:39:49;;;;;;;;;;;;;;;;;;4963129;28;19909;-88
2022/06/30 01:42:14;;;;;;;;;;;;;;;;;;4964261;28;19983;-87
2022/06/30 01:44:39;;;;;;;;;;;;;;;;;;4965891;28;19940;-86
2022/06/30 01:47:05;;;;;;;;;;;;;;;;;;4966361;28;19941;-90
2022/06/30 01:49:30;;;;;;;;;;;;;;;;;;4981751;28;19914;-88
2022/06/30 01:51:56;;;;;;;;;;;;;;;;;;4978875;28;19918;-88
2022/06/30 01:54:21;;;;;;;;;;;;;;;;;;4992848;28;19917;-88
2022/06/30 01:56:47;;;;;;;;;;;;;;;;;;4993728;28;19918;-88
2022/06/30 01:59:13;;;;;;;;;;;;;;;;;;4992530;28;19949;-88
2022/06/30 02:01:38;;;;;;;;;;;;;;;;;;4979988;28;19960;-87
2022/06/30 02:06:48;;;;;;;;;;;;;;;;;;4996221;28;20012;-86
2022/06/30 02:09:14;;;;;;;;;;;;;;;;;;4980029;28;19948;-89
2022/06/30 02:11:39;;;;;;;;;;;;;;;;;;4979370;28;19941;-87
2022/06/30 02:14:04;;;;;;;;;;;;;;;;;;4980288;28;20288;-88
2022/06/30 02:16:30;;;;;;;;;;;;;;;;;;4965298;28;19924;-87
2022/06/30 02:18:55;;;;;;;;;;;;;;;;;;4979648;28;19924;-88
2022/06/30 02:21:21;;;;;;;;;;;;;;;;;;4996057;28;19921;-87
2022/06/30 02:23:46;;;;;;;;;;;;;;;;;;4979822;28;19937;-87
2022/06/30 02:26:11;;;;;;;;;;;;;;;;;;4996692;28;20376;-86
2022/06/30 02:28:37;;;;;;;;;;;;;;;;;;4996916;28;19914;-86
2022/06/30 02:31:02;;;;;;;;;;;;;;;;;;4997602;28;19914;-86
2022/06/30 02:33:28;;;;;;;;;;;;;;;;;;4998964;28;20288;-88
2022/06/30 02:35:53;;;;;;;;;;;;;;;;;;4998102;28;19977;-86
2022/06/30 02:38:21;;;;;;;;;;;;;;;;;;4982983;28;19941;-87
2022/06/30 02:40:46;;;;;;;;;;;;;;;;;;4999873;28;19914;-87
2022/06/30 02:43:12;;;;;;;;;;;;;;;;;;5000825;28;19914;-84
2022/06/30 02:45:37;;;;;;;;;;;;;;;;;;4999884;28;20468;-85
2022/06/30 02:48:03;;;;;;;;;;;;;;;;;;4969496;28;19914;-86
2022/06/30 02:50:28;;;;;;;;;;;;;;;;;;4983053;28;19963;-87
2022/06/30 02:55:42;;;;;;;;;;;;;;;;;;5763458;23;19914;-93
2022/06/30 03:26:11;;;;;;;;;;;;;;;;;;5156892;23;19914;-91
2022/06/30 03:28:53;;;;;;;;;;;;;;;;;;4955633;28;19902;-95
2022/06/30 03:31:21;;;;;;;;;;;;;;;;;;5127903;23;19935;-95
2022/06/30 03:33:52;;;;;;;;;;;;;;;;;;4957905;29;19923;-94
2022/06/30 03:39:15;;;;;;;;;;;;;;;;;;4980504;28;19978;-95
2022/06/30 03:42:08;;;;;;;;;;;;;;;;;;4951223;28;19902;-94
2022/06/30 03:45:06;;;;;;;;;;;;;;;;;;5157201;23;19917;-81
2022/06/30 03:47:50;;;;;;;;;;;;;;;;;;4984607;28;19930;-92
2022/06/30 03:53:29;;;;;;;;;;;;;;;;;;6000461;23;19921;-90
2022/06/30 03:56:13;;;;;;;;;;;;;;;;;;4935197;28;19946;-94
2022/06/30 03:59:18;;;;;;;;;;;;;;;;;;4951142;29;19982;-95
2022/06/30 04:01:49;;;;;;;;;;;;;;;;;;5593994;23;19927;-94
2022/06/30 04:20:39;;;;;;;;;;;;;;;;;;5474358;23;19926;-92
2022/06/30 04:29:18;;;;;;;;;;;;;;;;;;5320970;23;19953;-94
2022/06/30 04:34:58;;;;;;;;;;;;;;;;;;4982345;28;19926;-94
2022/06/30 04:37:24;;;;;;;;;;;;;;;;;;4998943;28;19919;-94
2022/06/30 05:01:09;;;;;;;;;;;;;;;;;;4974016;28;19978;-95
2022/06/30 05:07:22;;;;;;;;;;;;;;;;;;;;;
2022/06/30 05:10:22;;;;;;;;;;;;;;;;;;4869117;29;19916;-93
2022/06/30 05:16:47;;;;;;;;;;;;;;;;;;4950248;29;19941;-93
2022/06/30 05:19:32;;;;;;;;;;;;;;;;;;4931246;29;19925;-93
2022/06/30 05:23:13;;;;;;;;;;;;;;;;;;;;;
2022/06/30 05:35:11;;;;;;;;;;;;;;;;;;5321489;23;19922;-91
2022/06/30 06:10:08;;;;;;;;;;;;;;;;;;5127543;23;19926;-95
2022/06/30 06:13:17;;;;;;;;;;;;;;;;;;4997424;28;19922;-94
2022/06/30 06:16:38;;;;;;;;;;;;;;;;;;4911569;28;19929;-94
2022/06/30 06:22:35;;;;;;;;;;;;;;;;;;4971329;28;19927;-92
2022/06/30 06:25:09;;;;;;;;;;;;;;;;;;4936846;29;19922;-93
2022/06/30 06:33:45;;;;;;;;;;;;;;;;;;4920580;29;19918;-93
2022/06/30 06:36:51;;;;;;;;;;;;;;;;;;4956375;29;19922;-91
2022/06/30 06:39:27;;;;;;;;;;;;;;;;;;4962942;29;19985;-94
2022/06/30 06:42:01;;;;;;;;;;;;;;;;;;4944277;29;19929;-91
2022/06/30 06:47:22;;;;;;;;;;;;;;;;;;4952273;29;19915;-93
2022/06/30 06:49:50;;;;;;;;;;;;;;;;;;4960398;29;19938;-92
2022/06/30 06:53:05;;;;;;;;;;;;;;;;;;4963585;28;19907;-90
2022/06/30 06:55:46;;;;;;;;;;;;;;;;;;;;;
2022/06/30 06:58:28;;;;;;;;;;;;;;;;;;4979266;29;19915;-94
2022/06/30 07:01:05;;;;;;;;;;;;;;;;;;4947915;29;19926;-93
2022/06/30 07:04:19;;;;;;;;;;;;;;;;;;4943182;28;19902;-94
2022/06/30 07:07:13;;;;;;;;;;;;;;;;;;4979851;28;19947;-94
2022/06/30 07:10:05;;;;;;;;;;;;;;;;;;4963448;29;19915;-94
2022/06/30 07:12:42;;;;;;;;;;;;;;;;;;4977140;28;19998;-94
2022/06/30 07:15:07;;;;;;;;;;;;;;;;;;4957297;29;19922;-93
2022/06/30 07:17:35;;;;;;;;;;;;;;;;;;4952167;29;19943;-94
2022/06/30 07:20:01;;;;;;;;;;;;;;;;;;4977213;28;19902;-92
2022/06/30 07:22:27;;;;;;;;;;;;;;;;;;4979099;28;19929;-91
2022/06/30 07:24:57;;;;;;;;;;;;;;;;;;4962135;29;19922;-92
2022/06/30 07:27:28;;;;;;;;;;;;;;;;;;4956922;29;19953;-91
2022/06/30 07:29:54;;;;;;;;;;;;;;;;;;4932058;29;19914;-93
2022/06/30 07:32:23;;;;;;;;;;;;;;;;;;4929973;29;19914;-95
2022/06/30 07:34:48;;;;;;;;;;;;;;;;;;4945928;29;20405;-91
2022/06/30 07:37:14;;;;;;;;;;;;;;;;;;4940545;29;19914;-90
2022/06/30 07:39:39;;;;;;;;;;;;;;;;;;4959767;29;19914;-91
2022/06/30 07:42:12;;;;;;;;;;;;;;;;;;4971210;28;20064;-93
2022/06/30 07:45:21;;;;;;;;;;;;;;;;;;4901496;29;19915;-93
2022/06/30 07:47:48;;;;;;;;;;;;;;;;;;4965363;29;19922;-93
2022/06/30 07:50:17;;;;;;;;;;;;;;;;;;4951182;29;19922;-92
2022/06/30 07:53:03;;;;;;;;;;;;;;;;;;4939594;29;19978;-90
2022/06/30 07:55:34;;;;;;;;;;;;;;;;;;4937486;29;19918;-93
2022/06/30 07:58:20;;;;;;;;;;;;;;;;;;4945173;29;19918;-91
2022/06/30 08:01:11;;;;;;;;;;;;;;;;;;4937787;29;19921;-96
2022/06/30 08:03:59;;;;;;;;;;;;;;;;;;4927657;29;19919;-96
2022/06/30 08:07:01;;;;;;;;;;;;;;;;;;4922589;29;19914;-94
2022/06/30 08:09:53;;;;;;;;;;;;;;;;;;4936951;29;20345;-96
2022/06/30 08:12:33;;;;;;;;;;;;;;;;;;4968131;28;20009;-95
2022/06/30 08:18:23;;;;;;;;;;;;;;;;;;;;;
2022/06/30 08:21:33;;;;;;;;;;;;;;;;;;;;;
2022/06/30 08:36:42;;;;;;;;;;;;;;;;;;4936175;29;20001;-94
2022/06/30 08:42:29;;;;;;;;;;;;;;;;;;4942160;29;19914;-95
2022/06/30 08:45:13;;;;;;;;;;;;;;;;;;4926966;28;19954;-91
2022/06/30 08:48:10;;;;;;;;;;;;;;;;;;;;;
2022/06/30 08:50:27;;;;;;;;;;;;;;;;;;5130888;23;19933;-86
2022/06/30 08:53:02;;;;;;;;;;;;;;;;;;4981446;28;19902;-92
2022/06/30 08:55:33;;;;;;;;;;;;;;;;;;4980781;28;19922;-94
2022/06/30 08:58:13;;;;;;;;;;;;;;;;;;4977898;28;19918;-93
2022/06/30 09:00:43;;;;;;;;;;;;;;;;;;4972520;28;19941;-92
2022/06/30 09:03:14;;;;;;;;;;;;;;;;;;4977913;28;19914;-93
2022/06/30 09:05:57;;;;;;;;;;;;;;;;;;4954359;28;19914;-92
2022/06/30 09:08:40;;;;;;;;;;;;;;;;;;4971307;28;19914;-95
2022/06/30 09:11:11;;;;;;;;;;;;;;;;;;4972220;28;20125;-94
2022/06/30 09:13:39;;;;;;;;;;;;;;;;;;4953611;28;19918;-94
2022/06/30 09:16:07;;;;;;;;;;;;;;;;;;4987496;28;19922;-95
2022/06/30 09:21:48;;;;;;;;;;;;;;;;;;4984927;28;19918;-95
2022/06/30 09:24:34;;;;;;;;;;;;;;;;;;4967291;28;19921;-94
2022/06/30 09:26:59;;;;;;;;;;;;;;;;;;4985756;28;19918;-94
2022/06/30 09:29:27;;;;;;;;;;;;;;;;;;4950487;28;19961;-93
2022/06/30 09:32:15;;;;;;;;;;;;;;;;;;4989789;28;19914;-94
2022/06/30 09:35:05;;;;;;;;;;;;;;;;;;4969994;28;19923;-92
2022/06/30 09:37:51;;;;;;;;;;;;;;;;;;4971831;28;19918;-93
2022/06/30 09:40:24;;;;;;;;;;;;;;;;;;4953407;28;19921;-94
2022/06/30 09:47:00;;;;;;;;;;;;;;;;;;4884420;29;19967;-93
2022/06/30 09:53:28;;;;;;;;;;;;;;;;;;4882939;29;19919;-91
2022/06/30 09:55:53;;;;;;;;;;;;;;;;;;4900330;29;19919;-91
2022/06/30 09:58:19;;;;;;;;;;;;;;;;;;4900046;29;19916;-91
2022/06/30 10:00:49;;;;;;;;;;;;;;;;;;4899995;29;19920;-91
2022/06/30 10:03:24;;;;;;;;;;;;;;;;;;4899328;29;19919;-92
2022/06/30 10:05:59;;;;;;;;;;;;;;;;;;4899403;29;20184;-91
2022/06/30 10:08:26;;;;;;;;;;;;;;;;;;4884282;29;20484;-92
2022/06/30 10:10:51;;;;;;;;;;;;;;;;;;4870271;29;20100;-91
2022/06/30 10:13:17;;;;;;;;;;;;;;;;;;4875018;28;19914;-91
2022/06/30 10:15:42;;;;;;;;;;;;;;;;;;4931225;28;19917;-90
2022/06/30 10:18:08;;;;;;;;;;;;;;;;;;4933601;28;19997;-91
2022/06/30 10:20:38;;;;;;;;;;;;;;;;;;4933231;28;20347;-91
2022/06/30 10:23:06;;;;;;;;;;;;;;;;;;4936708;28;19997;-90
2022/06/30 10:25:31;;;;;;;;;;;;;;;;;;4934111;28;19914;-90
2022/06/30 10:27:57;;;;;;;;;;;;;;;;;;4932978;28;19984;-91
2022/06/30 10:30:23;;;;;;;;;;;;;;;;;;4935765;28;19910;-92
2022/06/30 10:32:50;;;;;;;;;;;;;;;;;;4940419;28;20001;-91
2022/06/30 10:35:21;;;;;;;;;;;;;;;;;;4944936;28;19926;-91
2022/06/30 10:37:49;;;;;;;;;;;;;;;;;;4944210;28;19914;-91
2022/06/30 10:40:14;;;;;;;;;;;;;;;;;;4940863;28;19949;-93
2022/06/30 10:42:43;;;;;;;;;;;;;;;;;;4932677;28;19925;-91
2022/06/30 10:45:54;;;;;;;;;;;;;;;;;;4955894;28;19929;-92
2022/06/30 10:48:32;;;;;;;;;;;;;;;;;;;;;
2022/06/30 10:51:26;;;;;;;;;;;;;;;;;;4948491;28;19925;-92
2022/06/30 10:53:54;;;;;;;;;;;;;;;;;;4930439;28;19922;-90
2022/06/30 10:56:32;;;;;;;;;;;;;;;;;;4932693;28;19914;-91
2022/06/30 10:58:58;;;;;;;;;;;;;;;;;;4930278;28;19918;-92
2022/06/30 11:01:25;;;;;;;;;;;;;;;;;;4928575;28;19918;-88
2022/06/30 11:04:00;;;;;;;;;;;;;;;;;;4948708;28;19986;-91
2022/06/30 11:07:01;;;;;;;;;;;;;;;;;;4944489;28;19914;-91
2022/06/30 11:09:35;;;;;;;;;;;;;;;;;;4930160;28;19961;-92
2022/06/30 11:12:06;;;;;;;;;;;;;;;;;;4929545;28;20338;-91
2022/06/30 11:14:39;;;;;;;;;;;;;;;;;;4932721;28;19976;-90
2022/06/30 11:17:12;;;;;;;;;;;;;;;;;;4930090;28;19922;-90
2022/06/30 11:19:48;;;;;;;;;;;;;;;;;;4931722;28;20496;-91
2022/06/30 11:22:15;;;;;;;;;;;;;;;;;;4927659;28;19964;-91
2022/06/30 11:24:48;;;;;;;;;;;;;;;;;;4927116;28;20388;-90
2022/06/30 11:27:23;;;;;;;;;;;;;;;;;;4930552;28;20004;-89
2022/06/30 11:29:52;;;;;;;;;;;;;;;;;;4929258;28;20443;-89
2022/06/30 11:32:37;;;;;;;;;;;;;;;;;;;;;
2022/06/30 11:42:09;;;;;;;;;;;;;;;;;;4872058;29;19920;-89
2022/06/30 11:45:20;;;;;;;;;;;;;;;;;;4954501;28;19918;-91
2022/06/30 11:56:10;;;;;;;;;;;;;;;;;;;;;
2022/06/30 11:59:26;;;;;;;;;;;;;;;;;;4923274;29;19918;-89
2022/06/30 12:01:55;;;;;;;;;;;;;;;;;;4941081;29;19922;-88
2022/06/30 12:04:49;;;;;;;;;;;;;;;;;;4931272;29;19911;-87
2022/06/30 12:07:23;;;;;;;;;;;;;;;;;;4918616;29;19941;-87
2022/06/30 12:09:54;;;;;;;;;;;;;;;;;;4918878;29;19958;-89
2022/06/30 12:12:32;;;;;;;;;;;;;;;;;;4933798;29;20428;-87
2022/06/30 12:15:02;;;;;;;;;;;;;;;;;;4917529;29;20291;-89
2022/06/30 12:17:38;;;;;;;;;;;;;;;;;;4918515;29;19915;-89
2022/06/30 12:23:37;;;;;;;;;;;;;;;;;;4890492;29;20461;-89
2022/06/30 12:26:03;;;;;;;;;;;;;;;;;;4933721;29;19923;-88
2022/06/30 12:28:30;;;;;;;;;;;;;;;;;;4934174;29;19921;-87
2022/06/30 12:30:56;;;;;;;;;;;;;;;;;;4917953;29;19954;-87
2022/06/30 12:33:22;;;;;;;;;;;;;;;;;;4955263;28;19918;-88
2022/06/30 12:35:47;;;;;;;;;;;;;;;;;;4975434;28;20012;-88
2022/06/30 12:38:13;;;;;;;;;;;;;;;;;;4957374;28;19921;-87
2022/06/30 12:40:38;;;;;;;;;;;;;;;;;;4942169;28;19910;-87
2022/06/30 12:43:04;;;;;;;;;;;;;;;;;;4975472;28;19914;-87
2022/06/30 12:45:29;;;;;;;;;;;;;;;;;;4975799;28;20004;-88
2022/06/30 12:47:54;;;;;;;;;;;;;;;;;;4958819;28;19920;-87
2022/06/30 12:50:22;;;;;;;;;;;;;;;;;;4927544;28;19914;-88
2022/06/30 12:52:54;;;;;;;;;;;;;;;;;;4943955;28;19918;-86
2022/06/30 12:55:20;;;;;;;;;;;;;;;;;;4976533;28;20376;-90
2022/06/30 12:57:47;;;;;;;;;;;;;;;;;;4927075;28;20023;-85
2022/06/30 13:00:13;;;;;;;;;;;;;;;;;;4962011;28;19925;-89
2022/06/30 13:02:42;;;;;;;;;;;;;;;;;;4959769;28;20009;-88
2022/06/30 13:05:07;;;;;;;;;;;;;;;;;;4927868;28;20448;-88
2022/06/30 13:07:36;;;;;;;;;;;;;;;;;;4927985;28;19957;-88
2022/06/30 13:10:04;;;;;;;;;;;;;;;;;;4942502;28;19957;-89
2022/06/30 13:12:29;;;;;;;;;;;;;;;;;;4941643;28;19937;-88
2022/06/30 13:14:55;;;;;;;;;;;;;;;;;;4945660;28;20400;-88
2022/06/30 13:17:20;;;;;;;;;;;;;;;;;;4946724;28;20008;-89
2022/06/30 13:19:46;;;;;;;;;;;;;;;;;;4961462;28;19914;-90
2022/06/30 13:22:11;;;;;;;;;;;;;;;;;;4947743;28;20000;-88
2022/06/30 13:24:37;;;;;;;;;;;;;;;;;;4945118;28;19914;-86
2022/06/30 13:27:03;;;;;;;;;;;;;;;;;;4945192;28;20404;-89
2022/06/30 13:29:28;;;;;;;;;;;;;;;;;;4941306;28;20282;-89
2022/06/30 13:31:54;;;;;;;;;;;;;;;;;;4975117;28;20263;-89
2022/06/30 13:34:21;;;;;;;;;;;;;;;;;;4959218;28;19914;-89
2022/06/30 13:36:46;;;;;;;;;;;;;;;;;;4962458;28;19918;-87
2022/06/30 13:39:12;;;;;;;;;;;;;;;;;;4932605;28;19921;-91
2022/06/30 13:41:38;;;;;;;;;;;;;;;;;;4933825;28;20020;-88
2022/06/30 13:44:03;;;;;;;;;;;;;;;;;;4934942;28;19915;-89
2022/06/30 13:46:29;;;;;;;;;;;;;;;;;;4934665;28;19920;-89
2022/06/30 13:48:55;;;;;;;;;;;;;;;;;;4938018;28;19961;-90
2022/06/30 13:51:21;;;;;;;;;;;;;;;;;;4934420;28;19941;-88
2022/06/30 13:53:46;;;;;;;;;;;;;;;;;;4949032;28;19918;-89
2022/06/30 13:56:11;;;;;;;;;;;;;;;;;;4934241;28;19917;-89
2022/06/30 13:58:37;;;;;;;;;;;;;;;;;;4944012;28;19924;-90
2022/06/30 14:01:02;;;;;;;;;;;;;;;;;;4940127;28;19939;-88
2022/06/30 14:03:28;;;;;;;;;;;;;;;;;;4938940;28;20404;-89
2022/06/30 14:05:53;;;;;;;;;;;;;;;;;;4949503;28;19925;-92
2022/06/30 14:08:19;;;;;;;;;;;;;;;;;;4932276;28;19937;-87
2022/06/30 14:10:44;;;;;;;;;;;;;;;;;;4947729;28;20378;-89
2022/06/30 14:13:10;;;;;;;;;;;;;;;;;;4948314;28;19953;-91
2022/06/30 14:15:35;;;;;;;;;;;;;;;;;;4960850;28;20024;-90
2022/06/30 14:18:01;;;;;;;;;;;;;;;;;;4945152;28;19915;-90
2022/06/30 14:20:27;;;;;;;;;;;;;;;;;;4961635;28;19938;-91
2022/06/30 14:22:52;;;;;;;;;;;;;;;;;;4930010;28;20005;-90
2022/06/30 14:25:18;;;;;;;;;;;;;;;;;;4949296;28;19914;-88
2022/06/30 14:27:43;;;;;;;;;;;;;;;;;;4932668;28;20310;-90
2022/06/30 14:30:09;;;;;;;;;;;;;;;;;;4930109;28;19914;-93
2022/06/30 14:32:34;;;;;;;;;;;;;;;;;;4927753;28;19941;-91
2022/06/30 14:35:00;;;;;;;;;;;;;;;;;;4944580;28;19921;-89
2022/06/30 14:37:26;;;;;;;;;;;;;;;;;;4945708;28;19924;-91
2022/06/30 14:39:51;;;;;;;;;;;;;;;;;;4930519;28;19914;-92
2022/06/30 14:45:01;;;;;;;;;;;;;;;;;;4945734;28;19914;-89
2022/06/30 14:47:26;;;;;;;;;;;;;;;;;;4930255;28;19921;-91
2022/06/30 14:49:54;;;;;;;;;;;;;;;;;;4929343;28;20009;-86
2022/06/30 14:52:20;;;;;;;;;;;;;;;;;;4945004;28;19914;-91
2022/06/30 14:54:45;;;;;;;;;;;;;;;;;;4932141;28;19942;-90
2022/06/30 14:57:11;;;;;;;;;;;;;;;;;;4932258;28;19918;-91
2022/06/30 14:59:36;;;;;;;;;;;;;;;;;;4944769;28;19968;-90
2022/06/30 15:02:07;;;;;;;;;;;;;;;;;;4971257;23;19930;-86
2022/06/30 15:04:34;;;;;;;;;;;;;;;;;;4975794;28;20340;-86
2022/06/30 15:06:59;;;;;;;;;;;;;;;;;;4958387;28;19920;-86
2022/06/30 15:09:25;;;;;;;;;;;;;;;;;;4942616;28;20009;-86
2022/06/30 15:11:50;;;;;;;;;;;;;;;;;;4931114;29;19942;-88
2022/06/30 15:14:16;;;;;;;;;;;;;;;;;;4944311;29;19922;-87
2022/06/30 15:16:41;;;;;;;;;;;;;;;;;;4967233;29;19919;-85
2022/06/30 15:19:10;;;;;;;;;;;;;;;;;;4950856;29;19915;-87
2022/06/30 15:24:23;;;;;;;;;;;;;;;;;;4958452;29;19915;-85
2022/06/30 15:26:54;;;;;;;;;;;;;;;;;;4943044;29;19914;-86
2022/06/30 15:29:19;;;;;;;;;;;;;;;;;;4958622;29;19924;-85
2022/06/30 15:31:45;;;;;;;;;;;;;;;;;;4941799;29;20291;-86
2022/06/30 15:34:16;;;;;;;;;;;;;;;;;;4940943;29;19995;-86
2022/06/30 15:36:41;;;;;;;;;;;;;;;;;;4955387;29;19919;-86
2022/06/30 15:39:07;;;;;;;;;;;;;;;;;;4956764;29;20279;-86
2022/06/30 15:41:32;;;;;;;;;;;;;;;;;;4956477;28;20333;-87
2022/06/30 15:43:57;;;;;;;;;;;;;;;;;;4939098;29;19918;-85
2022/06/30 15:46:23;;;;;;;;;;;;;;;;;;4938359;29;19957;-86
2022/06/30 15:48:48;;;;;;;;;;;;;;;;;;4954338;29;19918;-87
2022/06/30 15:51:14;;;;;;;;;;;;;;;;;;4954001;28;19930;-88
2022/06/30 15:53:39;;;;;;;;;;;;;;;;;;4954119;29;20267;-87
2022/06/30 15:56:07;;;;;;;;;;;;;;;;;;4938190;29;20298;-88
2022/06/30 15:58:33;;;;;;;;;;;;;;;;;;4938754;29;19914;-86
2022/06/30 16:00:58;;;;;;;;;;;;;;;;;;4955318;28;19919;-84
2022/06/30 16:03:24;;;;;;;;;;;;;;;;;;4939563;29;20389;-85
2022/06/30 16:05:49;;;;;;;;;;;;;;;;;;4954781;29;20014;-85
2022/06/30 16:08:15;;;;;;;;;;;;;;;;;;4953428;29;20033;-84
2022/06/30 16:10:45;;;;;;;;;;;;;;;;;;4922410;29;20341;-85
2022/06/30 16:13:11;;;;;;;;;;;;;;;;;;4937060;29;20382;-84
2022/06/30 16:15:36;;;;;;;;;;;;;;;;;;4954883;29;19961;-84
2022/06/30 16:18:01;;;;;;;;;;;;;;;;;;4953513;29;19914;-84
2022/06/30 16:20:27;;;;;;;;;;;;;;;;;;4954556;28;19915;-85
2022/06/30 16:22:52;;;;;;;;;;;;;;;;;;4953158;28;20290;-83
2022/06/30 16:25:18;;;;;;;;;;;;;;;;;;4953760;29;20356;-84
2022/06/30 16:27:43;;;;;;;;;;;;;;;;;;4953224;29;20409;-85
2022/06/30 16:30:12;;;;;;;;;;;;;;;;;;4954531;29;19914;-84
2022/06/30 16:32:38;;;;;;;;;;;;;;;;;;4952292;28;19914;-85
2022/06/30 16:35:03;;;;;;;;;;;;;;;;;;4937275;29;20382;-84
2022/06/30 16:37:28;;;;;;;;;;;;;;;;;;4937862;29;20273;-85
2022/06/30 16:39:54;;;;;;;;;;;;;;;;;;4954819;29;19914;-85
2022/06/30 16:42:19;;;;;;;;;;;;;;;;;;4953869;28;19945;-86
2022/06/30 16:44:45;;;;;;;;;;;;;;;;;;4937813;29;20040;-84
2022/06/30 16:47:19;;;;;;;;;;;;;;;;;;4936948;29;19914;-85
2022/06/30 16:49:44;;;;;;;;;;;;;;;;;;4953478;29;19914;-83
2022/06/30 16:52:10;;;;;;;;;;;;;;;;;;4937200;29;20293;-83
2022/06/30 16:54:37;;;;;;;;;;;;;;;;;;4937212;29;19937;-83
2022/06/30 16:57:02;;;;;;;;;;;;;;;;;;4936980;29;19985;-84
2022/06/30 16:59:28;;;;;;;;;;;;;;;;;;4954688;29;20385;-85
2022/06/30 17:01:53;;;;;;;;;;;;;;;;;;4954409;28;19925;-85
2022/06/30 17:04:19;;;;;;;;;;;;;;;;;;4938376;29;20322;-85
2022/06/30 17:06:44;;;;;;;;;;;;;;;;;;4937574;29;19922;-82
2022/06/30 17:09:13;;;;;;;;;;;;;;;;;;4954774;29;19922;-89
2022/06/30 17:11:38;;;;;;;;;;;;;;;;;;4953966;28;19919;-83
2022/06/30 17:14:04;;;;;;;;;;;;;;;;;;4937224;29;19921;-85
2022/06/30 17:16:29;;;;;;;;;;;;;;;;;;4953697;29;20012;-85
2022/06/30 17:18:57;;;;;;;;;;;;;;;;;;4937739;29;19914;-85
2022/06/30 17:21:23;;;;;;;;;;;;;;;;;;4936723;29;19917;-85
2022/06/30 17:23:48;;;;;;;;;;;;;;;;;;4937161;29;19993;-84
2022/06/30 17:26:14;;;;;;;;;;;;;;;;;;4952991;29;19914;-85
2022/06/30 17:28:39;;;;;;;;;;;;;;;;;;4953974;29;20494;-82
2022/06/30 17:31:05;;;;;;;;;;;;;;;;;;4953551;28;20346;-84
2022/06/30 17:33:30;;;;;;;;;;;;;;;;;;4957674;29;19914;-84
2022/06/30 17:35:55;;;;;;;;;;;;;;;;;;4941114;29;20026;-84
2022/06/30 17:38:21;;;;;;;;;;;;;;;;;;4957446;29;19915;-84
2022/06/30 17:40:52;;;;;;;;;;;;;;;;;;4956882;29;19973;-83
2022/06/30 17:43:21;;;;;;;;;;;;;;;;;;4956917;29;19922;-84
2022/06/30 17:45:46;;;;;;;;;;;;;;;;;;4941402;29;19911;-85
2022/06/30 17:48:13;;;;;;;;;;;;;;;;;;4956152;29;19914;-84
2022/06/30 17:50:39;;;;;;;;;;;;;;;;;;4956399;29;19926;-84
2022/06/30 17:53:04;;;;;;;;;;;;;;;;;;4941286;29;19910;-85
2022/06/30 17:55:30;;;;;;;;;;;;;;;;;;4957977;29;20453;-84
2022/06/30 17:57:55;;;;;;;;;;;;;;;;;;4941237;29;19914;-84
2022/06/30 18:00:21;;;;;;;;;;;;;;;;;;4956427;29;20290;-83
2022/06/30 18:02:47;;;;;;;;;;;;;;;;;;4940164;29;20311;-84
2022/06/30 18:05:12;;;;;;;;;;;;;;;;;;4940293;29;19922;-84
2022/06/30 18:13:07;;;;;;;;;;;;;;;;;;4940090;29;19969;-84
2022/06/30 18:15:32;;;;;;;;;;;;;;;;;;4939982;29;19915;-84
2022/06/30 18:17:58;;;;;;;;;;;;;;;;;;4939757;29;20302;-84
2022/06/30 18:20:24;;;;;;;;;;;;;;;;;;4940247;29;19969;-83
2022/06/30 18:22:49;;;;;;;;;;;;;;;;;;4955328;28;20345;-84
2022/06/30 18:25:14;;;;;;;;;;;;;;;;;;4957061;29;20393;-84
2022/06/30 18:27:40;;;;;;;;;;;;;;;;;;4955688;29;20357;-83
2022/06/30 18:30:06;;;;;;;;;;;;;;;;;;4940989;29;20061;-83
2022/06/30 18:32:31;;;;;;;;;;;;;;;;;;4956849;28;20065;-82
2022/06/30 18:34:57;;;;;;;;;;;;;;;;;;4940216;29;19958;-83
2022/06/30 18:37:22;;;;;;;;;;;;;;;;;;4959912;29;19918;-83
2022/06/30 18:39:48;;;;;;;;;;;;;;;;;;4959104;29;19925;-84
2022/06/30 18:42:13;;;;;;;;;;;;;;;;;;4940685;29;20279;-84
2022/06/30 18:44:38;;;;;;;;;;;;;;;;;;4957280;29;19910;-84
2022/06/30 18:47:05;;;;;;;;;;;;;;;;;;4956477;29;19914;-85
2022/06/30 18:49:34;;;;;;;;;;;;;;;;;;4940495;29;19918;-85
2022/06/30 18:52:03;;;;;;;;;;;;;;;;;;4938075;29;19915;-83
2022/06/30 18:54:31;;;;;;;;;;;;;;;;;;4939672;29;19914;-85
2022/06/30 18:56:56;;;;;;;;;;;;;;;;;;4958407;29;19925;-83
2022/06/30 18:59:23;;;;;;;;;;;;;;;;;;4958341;29;19915;-84
2022/06/30 19:01:48;;;;;;;;;;;;;;;;;;4939202;29;19928;-85
2022/06/30 19:04:14;;;;;;;;;;;;;;;;;;4939352;29;19914;-82
2022/06/30 19:06:39;;;;;;;;;;;;;;;;;;4939346;29;19926;-85
2022/06/30 19:09:05;;;;;;;;;;;;;;;;;;4939529;29;19969;-84
2022/06/30 19:11:30;;;;;;;;;;;;;;;;;;4955287;28;19914;-84
2022/06/30 19:13:56;;;;;;;;;;;;;;;;;;4956125;29;19946;-84
2022/06/30 19:16:21;;;;;;;;;;;;;;;;;;4955034;29;20009;-85
2022/06/30 19:18:46;;;;;;;;;;;;;;;;;;4954949;29;19910;-85
2022/06/30 19:21:12;;;;;;;;;;;;;;;;;;4954917;28;19914;-84
2022/06/30 19:23:38;;;;;;;;;;;;;;;;;;4954446;29;20026;-85
2022/06/30 19:26:06;;;;;;;;;;;;;;;;;;4954500;29;19921;-86
2022/06/30 19:28:37;;;;;;;;;;;;;;;;;;4940103;29;19914;-85
2022/06/30 19:31:03;;;;;;;;;;;;;;;;;;4939369;28;19914;-85
2022/06/30 19:33:28;;;;;;;;;;;;;;;;;;4938923;29;20005;-85
2022/06/30 19:35:55;;;;;;;;;;;;;;;;;;4956689;29;20073;-85
2022/06/30 19:38:24;;;;;;;;;;;;;;;;;;4955148;29;19911;-85
2022/06/30 19:40:49;;;;;;;;;;;;;;;;;;4954089;28;19915;-85
2022/06/30 19:43:18;;;;;;;;;;;;;;;;;;4954272;29;19921;-85
2022/06/30 19:45:43;;;;;;;;;;;;;;;;;;4955095;29;19915;-85
2022/06/30 19:48:09;;;;;;;;;;;;;;;;;;4954492;29;19933;-83
2022/06/30 19:50:34;;;;;;;;;;;;;;;;;;4954314;29;19914;-83
2022/06/30 19:52:59;;;;;;;;;;;;;;;;;;4954818;28;19939;-84
2022/06/30 19:55:25;;;;;;;;;;;;;;;;;;4953676;28;19922;-85
2022/06/30 19:57:53;;;;;;;;;;;;;;;;;;4954396;29;20442;-84
2022/06/30 20:00:18;;;;;;;;;;;;;;;;;;4954806;29;19918;-85
2022/06/30 20:05:27;;;;;;;;;;;;;;;;;;4938176;29;20461;-84
2022/06/30 20:13:39;;;;;;;;;;;;;;;;;;4939422;29;19915;-84
2022/06/30 20:16:06;;;;;;;;;;;;;;;;;;4954148;29;19925;-84
2022/06/30 20:18:35;;;;;;;;;;;;;;;;;;4937721;29;19910;-84
2022/06/30 20:21:22;;;;;;;;;;;;;;;;;;4954060;28;19914;-84
2022/06/30 20:23:46;;;;;;;;;;;;;;;;;;4955097;29;19953;-85
2022/06/30 20:26:13;;;;;;;;;;;;;;;;;;4956383;29;19915;-84
2022/06/30 20:28:38;;;;;;;;;;;;;;;;;;4941439;29;19918;-85
2022/06/30 20:31:04;;;;;;;;;;;;;;;;;;4956282;28;19919;-83
2022/06/30 20:33:29;;;;;;;;;;;;;;;;;;4946354;29;19950;-84
2022/06/30 20:35:55;;;;;;;;;;;;;;;;;;4940509;29;20374;-84
2022/06/30 20:38:20;;;;;;;;;;;;;;;;;;4956213;29;19910;-85
2022/06/30 20:40:45;;;;;;;;;;;;;;;;;;4953101;29;19934;-85
2022/06/30 20:43:11;;;;;;;;;;;;;;;;;;4938375;29;19915;-85
2022/06/30 20:45:37;;;;;;;;;;;;;;;;;;4957843;29;19914;-85
2022/06/30 20:53:31;;;;;;;;;;;;;;;;;;4956034;29;19914;-85
2022/06/30 20:55:56;;;;;;;;;;;;;;;;;;4953896;29;19915;-84